Time;durP1;ratioP1;P1;durP2;ratioP2;P2;SDS_P1;SDS_P2;PMS_P1;PMS_P2;Temp;Humidity;BMP_temperature;BMP_pressure;BME280_temperature;BME280_humidity;BME280_pressure;Samples;Min_cycle;Max_cycle;Signal;HPM_P1;HPM_P2
2022/04/21 00:00:20;;;;;;;3.55;2.08;;;;;;;18.67;49.34;96129.91;5113914;28;20075;-32
2022/04/21 00:02:45;;;;;;;5.53;2.30;;;;;;;18.63;49.31;96132.13;5113936;28;20035;-32
2022/04/21 00:05:12;;;;;;;4.78;2.40;;;;;;;18.68;49.40;96131.41;5113556;28;20524;-32
2022/04/21 00:07:38;;;;;;;4.00;2.42;;;;;;;18.69;49.01;96132.91;5113669;28;20027;-32
2022/04/21 00:10:05;;;;;;;4.53;2.67;;;;;;;18.68;49.24;96131.41;5113944;28;20487;-32
2022/04/21 00:12:30;;;;;;;5.22;2.42;;;;;;;18.62;49.85;96122.38;5113826;28;20536;-32
2022/04/21 00:14:56;;;;;;;6.05;2.47;;;;;;;18.61;49.29;96118.88;5113915;28;20023;-32
2022/04/21 00:17:22;;;;;;;4.68;2.25;;;;;;;18.65;49.14;96113.94;5113810;28;20026;-32
2022/04/21 00:19:48;;;;;;;4.60;2.85;;;;;;;18.60;49.46;96105.63;5113587;28;20030;-32
2022/04/21 00:25:01;;;;;;;6.13;2.78;;;;;;;18.61;49.50;96093.41;5113945;28;20041;-32
2022/04/21 00:27:26;;;;;;;5.05;2.60;;;;;;;18.60;49.53;96098.16;5113469;28;20099;-32
2022/04/21 00:29:52;;;;;;;4.03;2.83;;;;;;;18.63;49.33;96093.69;5095465;28;20022;-32
2022/04/21 00:32:17;;;;;;;6.63;3.00;;;;;;;18.57;50.07;96095.59;5113451;28;20055;-32
2022/04/21 00:34:44;;;;;;;3.72;2.35;;;;;;;18.55;50.39;96098.81;5113489;28;20125;-32
2022/04/21 00:37:10;;;;;;;4.60;2.80;;;;;;;18.59;49.61;96087.66;5095359;28;20024;-32
2022/04/21 00:39:38;;;;;;;5.50;2.88;;;;;;;18.59;49.80;96087.66;5094915;28;20372;-33
2022/04/21 00:42:04;;;;;;;5.25;2.45;;;;;;;18.62;49.72;96083.94;5113328;28;20113;-32
2022/04/21 00:44:30;;;;;;;4.85;2.80;;;;;;;18.57;49.61;96073.63;5113612;28;20024;-32
2022/04/21 00:47:00;;;;;;;5.38;3.03;;;;;;;18.57;49.90;96070.88;5113228;28;20024;-32
2022/04/21 00:49:28;;;;;;;4.32;2.53;;;;;;;18.64;49.59;96059.50;5113410;28;20463;-32
2022/04/21 00:51:54;;;;;;;5.32;2.90;;;;;;;18.54;50.17;96060.88;5113537;28;20118;-32
2022/04/21 00:54:22;;;;;;;5.60;2.60;;;;;;;18.51;50.25;96053.63;5113576;28;20034;-32
2022/04/21 00:56:48;;;;;;;5.88;3.00;;;;;;;18.57;50.30;96055.16;5113370;28;20020;-32
2022/04/21 00:59:14;;;;;;;5.00;2.95;;;;;;;18.57;49.98;96052.41;5094925;28;20046;-32
2022/04/21 01:04:24;;;;;;;5.55;2.88;;;;;;;18.54;50.18;96049.91;5101251;28;20055;-32
2022/04/21 01:06:54;;;;;;;4.75;2.60;;;;;;;18.51;50.16;96042.63;5091720;28;20472;-32
2022/04/21 01:09:21;;;;;;;6.00;3.40;;;;;;;18.56;49.91;96044.66;5092713;28;20028;-32
2022/04/21 01:11:48;;;;;;;5.00;2.83;;;;;;;18.54;50.61;96042.41;5092826;28;20103;-32
2022/04/21 01:14:14;;;;;;;4.75;3.00;;;;;;;18.54;50.09;96041.66;5092850;28;20056;-32
2022/04/21 01:16:40;;;;;;;4.65;2.67;;;;;;;18.51;50.51;96040.63;5093950;28;20024;-33
2022/04/21 01:19:06;;;;;;;4.25;2.85;;;;;;;18.47;50.41;96042.84;5096416;28;20031;-32
2022/04/21 01:21:31;;;;;;;4.32;2.67;;;;;;;18.46;50.33;96048.81;5096468;28;20034;-32
2022/04/21 01:23:57;;;;;;;3.92;3.00;;;;;;;18.49;50.09;96048.59;5096405;28;20047;-32
2022/04/21 01:26:26;;;;;;;4.15;2.70;;;;;;;18.52;49.98;96044.13;5096372;28;20043;-33
2022/04/21 01:28:52;;;;;;;4.47;2.63;;;;;;;18.50;50.21;96036.38;5096291;28;20427;-33
2022/04/21 01:31:22;;;;;;;5.90;3.22;;;;;;;18.50;50.22;96043.88;5096394;28;20038;-32
2022/04/21 01:33:47;;;;;;;4.93;2.83;;;;;;;18.43;50.79;96041.56;5096300;28;20387;-32
2022/04/21 01:36:13;;;;;;;5.47;3.28;;;;;;;18.47;50.94;96037.34;5077991;28;20020;-32
2022/04/21 01:41:22;;;;;;;6.22;2.47;;;;;;;18.48;50.25;96022.38;5096108;28;20054;-34
2022/04/21 01:43:48;;;;;;;4.78;3.20;;;;;;;18.47;50.45;96020.13;5096091;28;20075;-31
2022/04/21 01:46:15;;;;;;;6.28;3.30;;;;;;;18.50;50.87;96019.16;5096209;28;20515;-27
2022/04/21 01:48:40;;;;;;;4.75;3.25;;;;;;;18.44;51.19;96010.13;5096191;28;20028;-27
2022/04/21 01:51:06;;;;;;;4.68;2.90;;;;;;;18.45;50.61;96011.63;5095989;28;20081;-27
2022/04/21 01:53:31;;;;;;;4.85;3.17;;;;;;;18.45;50.86;96014.38;5095953;28;20024;-27
2022/04/21 01:55:57;;;;;;;4.45;3.13;;;;;;;18.50;50.60;96016.41;5095810;28;20527;-27
2022/04/21 01:58:23;;;;;;;5.60;2.70;;;;;;;18.44;50.46;96018.34;5095720;28;20380;-27
2022/04/21 02:00:48;;;;;;;6.97;3.05;;;;;;;18.48;50.59;96016.91;5095906;28;20066;-27
2022/04/21 02:03:14;;;;;;;5.65;3.22;;;;;;;18.43;51.24;96014.84;5095852;28;20063;-27
2022/04/21 02:05:39;;;;;;;6.55;3.15;;;;;;;18.48;50.34;96007.91;5095430;28;20031;-27
2022/04/21 02:08:05;;;;;;;4.93;3.03;;;;;;;18.51;50.52;96010.44;5095742;28;20028;-27
2022/04/21 02:10:31;;;;;;;5.40;3.22;;;;;;;18.47;51.09;96012.63;5095788;28;20024;-27
2022/04/21 02:12:57;;;;;;;3.78;3.10;;;;;;;18.50;50.78;96010.91;5077216;28;20459;-27
2022/04/21 02:15:23;;;;;;;4.20;2.70;;;;;;;18.47;50.58;96015.38;5095523;28;20380;-27
2022/04/21 02:17:49;;;;;;;4.57;2.90;;;;;;;18.51;50.79;96015.16;5095384;28;20016;-27
2022/04/21 02:20:16;;;;;;;6.30;3.13;;;;;;;18.57;50.31;96007.72;5095383;28;20035;-27
2022/04/21 02:22:43;;;;;;;5.22;3.30;;;;;;;18.47;50.83;96007.16;5095226;28;20032;-27
2022/04/21 02:25:10;;;;;;;6.55;4.13;;;;;;;18.49;50.82;96009.41;5095287;28;20077;-27
2022/04/21 02:27:38;;;;;;;5.93;3.40;;;;;;;18.47;50.69;96025.63;5095205;28;20039;-27
2022/04/21 02:30:05;;;;;;;4.15;2.88;;;;;;;18.47;50.66;96003.66;5095128;28;20016;-27
2022/04/21 02:32:30;;;;;;;5.97;3.22;;;;;;;18.47;51.26;96009.91;5095191;28;20467;-27
2022/04/21 02:34:57;;;;;;;4.57;2.80;;;;;;;18.43;51.38;95994.88;5095381;28;20035;-27
2022/04/21 02:37:23;;;;;;;4.65;3.20;;;;;;;18.45;51.13;95992.41;5095320;28;20024;-27
2022/04/21 02:39:52;;;;;;;3.67;3.05;;;;;;;18.41;51.00;95987.16;5076983;28;20035;-27
2022/04/21 02:42:21;;;;;;;3.90;2.90;;;;;;;18.39;51.50;95983.38;5094813;28;20048;-27
2022/04/21 02:44:48;;;;;;;3.92;2.90;;;;;;;18.42;51.38;95985.16;5094908;28;20456;-27
2022/04/21 02:47:14;;;;;;;6.60;2.95;;;;;;;18.43;50.93;95984.66;5094753;28;20097;-27
2022/04/21 02:49:45;;;;;;;5.32;3.30;;;;;;;18.48;51.19;95977.69;5094679;28;20031;-27
2022/04/21 02:52:13;;;;;;;5.32;2.80;;;;;;;18.42;51.18;95980.41;5094887;28;20020;-27
2022/04/21 02:57:41;;;;;;;5.50;3.38;;;;;;;18.43;50.93;95965.44;5032694;28;20571;-27
2022/04/21 03:00:07;;;;;;;4.35;3.00;;;;;;;18.39;51.46;95958.69;5032333;28;20050;-27
2022/04/21 03:02:32;;;;;;;5.65;3.45;;;;;;;18.38;51.98;95946.19;5032332;28;20032;-27
2022/04/21 03:04:58;;;;;;;5.35;2.97;;;;;;;18.46;51.10;95947.22;5032460;28;20505;-27
2022/04/21 03:07:24;;;;;;;4.75;3.15;;;;;;;18.40;51.40;95944.47;5032146;28;20033;-27
2022/04/21 03:09:50;;;;;;;5.05;3.40;;;;;;;18.31;51.75;95942.63;5032256;28;20025;-27
2022/04/21 03:12:16;;;;;;;4.20;3.08;;;;;;;18.35;51.92;95953.41;5032037;28;20033;-27
2022/04/21 03:14:42;;;;;;;4.70;3.03;;;;;;;18.40;51.22;95965.69;5032042;28;20029;-27
2022/04/21 03:17:09;;;;;;;4.65;3.03;;;;;;;18.32;52.13;95976.34;5032079;28;20025;-27
2022/04/21 03:19:36;;;;;;;4.75;3.15;;;;;;;18.33;51.82;95969.59;5032021;28;20045;-27
2022/04/21 03:24:47;;;;;;;6.65;3.20;;;;;;;18.40;51.18;95965.69;5032490;28;20067;-27
2022/04/21 03:27:14;;;;;;;5.32;2.90;;;;;;;18.36;51.53;95965.88;5031983;28;20033;-27
2022/04/21 03:29:40;;;;;;;6.25;3.08;;;;;;;18.33;51.63;95961.38;5031713;28;20083;-27
2022/04/21 03:32:10;;;;;;;4.85;3.35;;;;;;;18.29;52.01;95958.13;5074888;28;20413;-27
2022/04/21 03:34:44;;;;;;;3.95;2.90;;;;;;;18.34;51.75;95942.91;5093931;28;20041;-27
2022/04/21 03:37:12;;;;;;;4.57;3.08;;;;;;;18.34;51.75;95931.94;5093970;28;20065;-27
2022/04/21 03:39:41;;;;;;;3.83;2.70;;;;;;;18.39;51.22;95928.47;5093309;28;20038;-27
2022/04/21 03:42:16;;;;;;;3.53;2.47;;;;;;;18.33;51.71;95922.19;5093721;28;20051;-27
2022/04/21 03:44:42;;;;;;;4.13;2.80;;;;;;;18.43;51.04;95926.25;5093906;28;20051;-27
2022/04/21 03:47:08;;;;;;;3.97;3.03;;;;;;;18.34;51.49;95918.19;5093976;28;20066;-27
2022/04/21 03:49:33;;;;;;;4.55;2.60;;;;;;;18.35;51.32;95916.97;5093972;28;20016;-27
2022/04/21 03:51:59;;;;;;;4.45;2.88;;;;;;;18.34;51.75;95909.97;5093910;28;20024;-27
2022/04/21 03:54:26;;;;;;;5.45;3.15;;;;;;;18.27;51.84;95917.44;5093881;28;20020;-27
2022/04/21 03:56:53;;;;;;;4.78;2.90;;;;;;;18.31;51.75;95922.66;5075345;28;20495;-27
2022/04/21 03:59:19;;;;;;;3.75;2.70;;;;;;;18.34;51.60;95924.44;5093537;28;20036;-27
2022/04/21 04:01:45;;;;;;;6.15;3.13;;;;;;;18.24;52.20;95931.38;5093684;28;20051;-27
2022/04/21 04:04:12;;;;;;;4.35;2.70;;;;;;;18.25;51.91;95933.63;5093568;28;20047;-27
2022/04/21 04:12:11;;;;;;;4.53;3.13;;;;;;;18.31;51.89;95942.63;5093767;28;20131;-27
2022/04/21 04:14:38;;;;;;;4.00;2.90;;;;;;;18.28;51.77;95945.63;5093405;28;20052;-27
2022/04/21 04:17:08;;;;;;;4.82;2.72;;;;;;;18.28;51.84;95935.41;5093596;28;20115;-27
2022/04/21 04:19:34;;;;;;;4.78;2.80;;;;;;;18.25;51.79;95943.84;5093419;28;20020;-27
2022/04/21 04:22:03;;;;;;;4.00;2.85;;;;;;;18.31;51.34;95936.41;5093501;28;20512;-27
2022/04/21 04:24:29;;;;;;;5.38;2.90;;;;;;;18.30;51.48;95932.91;5093212;28;20063;-27
2022/04/21 04:26:56;;;;;;;5.72;2.85;;;;;;;18.27;51.62;95924.91;5093634;28;20055;-27
2022/04/21 04:29:25;;;;;;;4.68;2.83;;;;;;;18.26;51.73;95918.66;5093327;28;20069;-27
2022/04/21 04:31:51;;;;;;;3.45;2.60;;;;;;;18.28;51.81;95918.19;5093226;28;20036;-27
2022/04/21 04:34:17;;;;;;;5.50;2.65;;;;;;;18.24;51.96;95912.16;5075025;28;20032;-27
2022/04/21 04:36:43;;;;;;;4.88;2.80;;;;;;;18.23;51.91;95910.66;5093557;28;20043;-27
2022/04/21 04:39:09;;;;;;;6.05;3.20;;;;;;;18.31;51.31;95904.22;5093355;28;20020;-27
2022/04/21 04:44:18;;;;;;;6.13;2.83;;;;;;;18.22;51.83;95901.66;5093326;28;20046;-27
2022/04/21 04:46:44;;;;;;;4.65;2.80;;;;;;;18.22;52.15;95903.66;5093238;28;20111;-27
2022/04/21 04:49:11;;;;;;;3.40;2.63;;;;;;;18.23;51.91;95911.41;5093105;28;20383;-27
2022/04/21 04:51:39;;;;;;;6.35;2.78;;;;;;;18.26;51.55;95909.69;5094540;28;20115;-27
2022/04/21 04:54:07;;;;;;;4.95;2.80;;;;;;;18.20;51.91;95915.13;5096920;28;20467;-27
2022/04/21 04:56:34;;;;;;;5.07;3.30;;;;;;;18.19;51.98;95908.13;5097627;28;20028;-27
2022/04/21 04:59:00;;;;;;;5.15;2.80;;;;;;;18.21;52.07;95916.63;5096767;28;20028;-27
2022/04/21 05:01:31;;;;;;;5.60;3.08;;;;;;;18.19;51.79;95918.34;5096975;28;20028;-27
2022/04/21 05:04:06;;;;;;;5.18;2.85;;;;;;;18.22;51.79;95903.66;5097118;28;20042;-27
2022/04/21 05:06:39;;;;;;;4.53;2.85;;;;;;;18.19;51.96;95901.88;5096767;28;20104;-27
2022/04/21 05:09:06;;;;;;;6.17;2.93;;;;;;;18.21;51.91;95899.41;5096714;28;20573;-27
2022/04/21 05:11:33;;;;;;;3.25;2.38;;;;;;;18.11;52.47;95898.84;5096932;28;20453;-27
2022/04/21 05:13:59;;;;;;;4.70;2.92;;;;;;;18.19;51.92;95899.88;5096658;28;20028;-27
2022/04/21 05:16:25;;;;;;;4.40;2.97;;;;;;;18.21;51.68;95908.38;5096553;28;20068;-27
2022/04/21 05:18:51;;;;;;;3.55;2.40;;;;;;;18.16;51.71;95898.16;5096572;28;20437;-27
2022/04/21 05:21:17;;;;;;;3.80;2.55;;;;;;;18.14;52.08;95900.63;5096457;28;20548;-27
2022/04/21 05:23:46;;;;;;;3.13;2.65;;;;;;;18.20;51.86;95912.38;5096591;28;20051;-27
2022/04/21 05:26:12;;;;;;;4.85;3.00;;;;;;;18.12;52.19;95908.59;5102887;28;20176;-27
2022/04/21 05:28:39;;;;;;;4.25;2.72;;;;;;;18.15;51.89;95907.63;5098758;28;20103;-27
2022/04/21 05:31:05;;;;;;;4.88;2.75;;;;;;;18.17;51.79;95907.13;5096589;28;20535;-27
2022/04/21 05:33:31;;;;;;;4.03;2.40;;;;;;;18.15;51.67;95909.59;5096353;28;20023;-27
2022/04/21 05:36:00;;;;;;;5.95;3.00;;;;;;;18.18;51.98;95906.63;5114742;28;20061;-27
2022/04/21 05:38:26;;;;;;;3.60;2.40;;;;;;;18.20;51.73;95914.38;5114298;28;20455;-27
2022/04/21 05:40:52;;;;;;;5.75;2.70;;;;;;;18.14;51.83;95906.13;5096211;28;20034;-27
2022/04/21 05:43:20;;;;;;;5.07;2.40;;;;;;;18.17;51.61;95910.63;5111793;28;20063;-27
2022/04/21 05:45:47;;;;;;;3.58;3.08;;;;;;;18.12;51.88;95913.31;5094230;28;20024;-27
2022/04/21 05:48:15;;;;;;;5.63;2.97;;;;;;;18.13;51.86;95904.59;5100590;28;20410;-27
2022/04/21 05:50:49;;;;;;;5.07;2.72;;;;;;;18.15;51.71;95904.88;5104945;28;20026;-27
2022/04/21 05:53:23;;;;;;;4.20;2.35;;;;;;;18.13;51.92;95888.13;5101876;28;20540;-27
2022/04/21 05:55:50;;;;;;;3.13;2.42;;;;;;;18.17;51.69;95893.41;5104393;28;20023;-27
2022/04/21 05:58:16;;;;;;;6.22;3.80;;;;;;;18.15;51.76;95896.63;5085488;28;20051;-27
2022/04/21 06:00:42;;;;;;;3.35;2.53;;;;;;;18.11;52.03;95893.34;5113882;28;20039;-27
2022/04/21 06:03:08;;;;;;;4.30;2.67;;;;;;;18.09;51.90;95890.34;5113746;28;20382;-27
2022/04/21 06:05:34;;;;;;;3.45;2.63;;;;;;;18.09;51.92;95884.88;5114270;28;20463;-27
2022/04/21 06:08:00;;;;;;;2.92;2.05;;;;;;;18.10;51.84;95872.66;5114030;28;20032;-27
2022/04/21 06:10:25;;;;;;;3.50;2.30;;;;;;;18.12;51.93;95875.66;5095645;28;20387;-27
2022/04/21 06:12:51;;;;;;;4.43;3.05;;;;;;;18.09;52.00;95873.88;5113019;28;20027;-27
2022/04/21 06:15:17;;;;;;;4.28;2.67;;;;;;;18.15;52.06;95882.91;5095543;28;20030;-27
2022/04/21 06:17:42;;;;;;;3.05;2.50;;;;;;;18.14;51.63;95881.41;5113921;28;20031;-27
2022/04/21 06:20:10;;;;;;;4.70;2.80;;;;;;;18.13;51.90;95877.16;5108267;28;20043;-27
2022/04/21 06:22:35;;;;;;;5.97;2.95;;;;;;;18.13;52.21;95871.69;5093394;28;20039;-27
2022/04/21 06:25:01;;;;;;;3.35;2.60;;;;;;;18.10;52.47;95878.13;5093057;28;20043;-27
2022/04/21 06:27:26;;;;;;;3.50;2.15;;;;;;;18.11;52.04;95868.66;5093263;28;20043;-27
2022/04/21 06:29:52;;;;;;;4.25;2.85;;;;;;;18.15;51.76;95868.44;5093410;28;20026;-27
2022/04/21 06:32:18;;;;;;;4.13;2.97;;;;;;;18.11;52.14;95856.94;5093222;28;20028;-27
2022/04/21 06:34:44;;;;;;;4.50;3.00;;;;;;;18.16;51.63;95853.47;5093203;28;20035;-27
2022/04/21 06:37:09;;;;;;;4.30;2.63;;;;;;;18.17;51.81;95855.00;5092888;28;20024;-27
2022/04/21 06:39:35;;;;;;;3.60;2.22;;;;;;;18.12;51.78;95847.47;5092984;28;20464;-27
2022/04/21 06:42:00;;;;;;;5.20;2.70;;;;;;;18.12;52.28;95842.72;5092803;28;20040;-27
2022/04/21 06:49:55;;;;;;;4.75;2.80;;;;;;;18.09;52.23;95843.69;5092612;28;20035;-27
2022/04/21 06:52:20;;;;;;;3.60;2.50;;;;;;;18.08;52.13;95835.94;5092807;28;20412;-27
2022/04/21 06:54:47;;;;;;;3.50;2.53;;;;;;;18.05;52.48;95829.44;5091732;28;20028;-27
2022/04/21 06:57:13;;;;;;;5.68;2.63;;;;;;;18.09;51.85;95829.97;5092775;28;20024;-27
2022/04/21 06:59:46;;;;;;;6.07;2.85;;;;;;;18.03;52.35;95829.22;5092616;28;20031;-27
2022/04/21 07:02:12;;;;;;;3.17;2.67;;;;;;;18.05;52.02;95821.22;5092060;28;20027;-27
2022/04/21 07:04:38;;;;;;;4.78;3.70;;;;;;;18.14;51.68;95817.53;5095281;28;20039;-27
2022/04/21 07:07:05;;;;;;;4.13;2.60;;;;;;;18.04;51.99;95810.75;5092349;28;20372;-27
2022/04/21 07:09:30;;;;;;;3.60;2.97;;;;;;;18.10;52.14;95814.25;5074171;28;20392;-27
2022/04/21 07:11:56;;;;;;;7.00;2.80;;;;;;;18.10;51.94;95806.78;5092179;28;20024;-27
2022/04/21 07:14:21;;;;;;;3.80;2.85;;;;;;;18.09;52.37;95804.53;5073113;28;20044;-27
2022/04/21 07:16:47;;;;;;;4.82;2.67;;;;;;;18.02;52.16;95792.03;5092359;28;20024;-27
2022/04/21 07:19:12;;;;;;;4.82;2.88;;;;;;;18.00;52.60;95780.03;5092152;28;20115;-27
2022/04/21 07:21:38;;;;;;;4.60;2.55;;;;;;;18.07;52.41;95774.84;5109460;28;20033;-27
2022/04/21 07:24:04;;;;;;;4.15;2.60;;;;;;;18.04;52.51;95775.09;5112153;28;20110;-27
2022/04/21 07:26:29;;;;;;;4.78;2.50;;;;;;;17.95;52.72;95771.28;5111908;28;20023;-27
2022/04/21 07:28:55;;;;;;;3.60;2.30;;;;;;;18.01;52.74;95770.56;5112413;28;20097;-27
2022/04/21 07:31:20;;;;;;;3.42;2.30;;;;;;;17.81;53.29;95768.69;5112430;28;20033;-27
2022/04/21 07:33:46;;;;;;;4.97;2.92;;;;;;;17.85;53.09;95769.22;5112293;28;20041;-27
2022/04/21 07:36:11;;;;;;;5.68;2.75;;;;;;;18.02;52.26;95770.09;5112351;28;20019;-27
2022/04/21 07:38:37;;;;;;;6.13;2.90;;;;;;;18.00;52.40;95769.06;5112045;28;20050;-27
2022/04/21 07:41:02;;;;;;;3.60;2.38;;;;;;;18.03;52.88;95763.34;5111359;28;20050;-27
2022/04/21 07:43:28;;;;;;;4.35;2.70;;;;;;;18.03;52.85;95752.38;5110776;28;20059;-27
2022/04/21 07:45:55;;;;;;;4.35;3.03;;;;;;;17.99;52.55;95738.13;5111708;28;20028;-27
2022/04/21 07:48:21;;;;;;;5.43;2.72;;;;;;;18.00;52.77;95741.63;5111722;28;20070;-27
2022/04/21 07:50:46;;;;;;;6.07;3.38;;;;;;;18.00;52.89;95720.44;5111259;28;20051;-27
2022/04/21 07:53:15;;;;;;;3.35;2.70;;;;;;;17.95;53.12;95724.66;5089390;28;20062;-27
2022/04/21 07:55:43;;;;;;;5.28;3.05;;;;;;;17.78;54.02;95731.31;5091427;28;20027;-27
2022/04/21 07:58:11;;;;;;;4.05;3.13;;;;;;;17.91;53.19;95737.88;5091540;28;20031;-27
2022/04/21 08:00:38;;;;;;;4.97;3.08;;;;;;;17.92;53.05;95731.13;5091644;28;20038;-27
2022/04/21 08:03:05;;;;;;;5.20;3.03;;;;;;;16.76;59.50;95726.28;5091094;28;20023;-28
2022/04/21 08:05:30;;;;;;;6.70;3.45;;;;;;;16.57;61.06;95727.06;5091102;28;20038;-28
2022/04/21 08:07:57;;;;;;;4.57;3.30;;;;;;;16.97;60.59;95732.44;5091170;28;20471;-28
2022/04/21 08:10:23;;;;;;;6.10;3.47;;;;;;;17.30;58.52;95742.94;5073258;28;20034;-28
2022/04/21 08:12:51;;;;;;;6.97;3.10;;;;;;;17.50;57.70;95745.56;5093080;28;20364;-28
2022/04/21 08:15:27;;;;;;;8.50;2.85;;;;;;;17.36;57.88;95748.44;5111854;28;20035;-29
2022/04/21 08:17:57;;;;;;;9.00;3.45;;;;;;;17.57;57.28;95744.34;5112690;28;20047;-29
2022/04/21 08:20:24;;;;;;;9.20;3.15;;;;;;;17.51;57.29;95747.06;5112371;28;20024;-28
2022/04/21 08:22:50;;;;;;;6.53;3.03;;;;;;;17.70;56.48;95743.94;5113805;28;20030;-28
2022/04/21 08:33:29;;;;;;;6.15;2.63;;;;;;;17.87;55.31;95744.81;5118059;28;20386;-28
2022/04/21 08:35:58;;;;;;;4.68;2.92;;;;;;;17.46;56.89;95741.53;5117762;28;20102;-28
2022/04/21 08:38:28;;;;;;;6.38;2.90;;;;;;;17.29;58.14;95738.69;5118112;28;20047;-28
2022/04/21 08:40:55;;;;;;;4.35;2.45;;;;;;;17.69;56.23;95732.22;5117726;28;20024;-28
2022/04/21 08:43:23;;;;;;;9.43;2.90;;;;;;;17.74;55.53;95736.25;5117461;28;20055;-29
2022/04/21 08:45:50;;;;;;;4.70;3.00;;;;;;;17.82;55.31;95729.06;5117603;28;20115;-28
2022/04/21 08:48:18;;;;;;;6.68;2.83;;;;;;;17.86;54.96;95732.34;5117849;28;20020;-28
2022/04/21 08:50:44;;;;;;;5.95;3.03;;;;;;;17.81;55.18;95722.81;5117633;28;20023;-28
2022/04/21 08:53:13;;;;;;;7.57;2.72;;;;;;;17.71;56.22;95720.78;5117722;28;20019;-28
2022/04/21 08:55:39;;;;;;;3.05;2.20;;;;;;;17.79;55.39;95743.78;5117443;28;20596;-29
2022/04/21 08:58:05;;;;;;;6.93;2.83;;;;;;;17.83;55.25;95745.03;5117532;28;20098;-28
2022/04/21 09:00:31;;;;;;;9.27;2.92;;;;;;;17.54;56.43;95745.34;5117415;28;20153;-28
2022/04/21 09:02:59;;;;;;;4.40;2.58;;;;;;;17.70;55.70;95747.44;5117352;28;20024;-30
2022/04/21 09:05:30;;;;;;;7.45;2.85;;;;;;;17.67;55.77;95745.72;5117454;28;20098;-28
2022/04/21 09:07:58;;;;;;;6.63;2.50;;;;;;;17.85;54.63;95741.81;5117146;28;20048;-29
2022/04/21 09:10:25;;;;;;;4.40;2.40;;;;;;;17.84;54.73;95745.78;5117222;28;20030;-28
2022/04/21 09:12:59;;;;;;;6.90;2.47;;;;;;;17.83;54.55;95753.25;5117188;28;20027;-29
2022/04/21 09:15:27;;;;;;;7.20;2.38;;;;;;;17.88;54.29;95757.28;5117135;28;20384;-29
2022/04/21 09:18:00;;;;;;;5.43;2.38;;;;;;;17.83;54.41;95764.22;5116862;28;20091;-29
2022/04/21 09:20:27;;;;;;;;;;;;;;;17.84;54.26;95773.22;5117438;28;20024;-28
2022/04/21 09:22:57;;;;;;;6.95;2.85;;;;;;;17.88;54.12;95782.72;5117109;28;19907;-30
2022/04/21 09:25:50;;;;;;;9.50;2.75;;;;;;;17.86;54.31;95792.69;5117052;28;20047;-28
2022/04/21 09:28:26;;;;;;;6.57;2.90;;;;;;;17.85;54.10;95780.19;5114000;28;20019;-28
2022/04/21 09:30:55;;;;;;;7.53;2.92;;;;;;;17.83;54.48;95782.69;5116664;28;20050;-30
2022/04/21 09:33:34;;;;;;;3.75;2.38;;;;;;;17.83;54.10;95785.44;5116648;28;20020;-28
2022/04/21 09:36:03;;;;;;;5.55;2.63;;;;;;;17.78;54.36;95778.69;5116846;28;20020;-28
2022/04/21 09:38:29;;;;;;;6.38;2.92;;;;;;;17.79;54.35;95787.66;5115997;28;20023;-30
2022/04/21 09:41:11;;;;;;;8.35;2.55;;;;;;;17.75;54.52;95776.91;5116718;28;20034;-28
2022/04/21 09:43:39;;;;;;;5.47;2.60;;;;;;;17.68;54.63;95784.84;5116548;28;20459;-29
2022/04/21 09:46:12;;;;;;;5.85;2.88;;;;;;;17.67;54.89;95780.59;5116414;28;20020;-30
2022/04/21 09:48:37;;;;;;;6.03;2.65;;;;;;;17.63;54.88;95786.31;5116272;28;20031;-29
2022/04/21 09:51:17;;;;;;;6.20;3.33;;;;;;;17.74;54.62;95774.66;5116353;28;20410;-29
2022/04/21 09:54:00;;;;;;;6.35;2.90;;;;;;;17.74;54.40;95772.66;5116442;28;20548;-28
2022/04/21 09:56:35;;;;;;;6.90;2.57;;;;;;;17.79;54.16;95793.16;5116580;28;20110;-29
2022/04/21 09:59:08;;;;;;;12.10;3.10;;;;;;;17.73;54.68;95795.09;5116049;28;20023;-28
2022/04/21 10:01:36;;;;;;;;;;;;;;;17.83;54.41;95810.09;5116661;28;20482;-28
2022/04/21 10:04:06;;;;;;;8.35;3.70;;;;;;;17.74;54.58;95813.03;5116364;28;19908;-28
2022/04/21 10:06:32;;;;;;;6.93;3.38;;;;;;;17.75;54.49;95801.59;5097808;28;20028;-29
2022/04/21 10:08:58;;;;;;;6.03;2.85;;;;;;;17.72;54.74;95807.28;5115937;28;20095;-28
2022/04/21 10:11:25;;;;;;;6.05;2.97;;;;;;;17.76;54.48;95811.31;5115905;28;20123;-28
2022/04/21 10:13:55;;;;;;;6.47;3.08;;;;;;;17.75;54.54;95809.81;5114561;28;20163;-28
2022/04/21 10:16:30;;;;;;;7.25;3.40;;;;;;;17.70;54.75;95805.03;5114381;28;20032;-28
2022/04/21 10:18:58;;;;;;;7.80;3.42;;;;;;;17.70;54.62;95804.28;5115974;28;20027;-28
2022/04/21 10:21:36;;;;;;;6.38;2.92;;;;;;;17.63;54.95;95796.50;5115834;28;20021;-29
2022/04/21 10:24:02;;;;;;;9.05;3.00;;;;;;;17.69;54.88;95794.56;5115542;28;20042;-28
2022/04/21 10:26:40;;;;;;;5.70;3.15;;;;;;;17.78;54.44;95786.16;5115916;28;20020;-30
2022/04/21 10:29:14;;;;;;;7.00;3.15;;;;;;;17.68;54.73;95782.84;5115832;28;20110;-28
2022/04/21 10:31:51;;;;;;;5.63;3.20;;;;;;;17.72;54.76;95777.88;5115838;28;20020;-28
2022/04/21 10:34:45;;;;;;;6.80;3.20;;;;;;;17.83;54.19;95775.19;5115485;28;20138;-29
2022/04/21 10:37:12;;;;;;;6.03;3.83;;;;;;;17.52;55.55;95762.28;5115862;28;20096;-28
2022/04/21 10:39:39;;;;;;;5.43;2.90;;;;;;;17.69;55.07;95753.41;5115373;28;20045;-28
2022/04/21 10:42:14;;;;;;;4.47;2.88;;;;;;;17.69;55.09;95745.94;5115143;28;20047;-28
2022/04/21 10:44:53;;;;;;;5.43;2.72;;;;;;;17.75;54.82;95740.50;5115321;28;20059;-28
2022/04/21 10:47:36;;;;;;;7.05;3.05;;;;;;;17.68;55.23;95730.00;5096835;28;20486;-28
2022/04/21 10:50:12;;;;;;;6.25;3.10;;;;;;;17.74;55.04;95730.78;5115159;28;20094;-29
2022/04/21 10:57:55;;;;;;;7.38;3.78;;;;;;;17.58;55.76;95723.91;5115062;28;20100;-29
2022/04/21 11:00:28;;;;;;;7.00;3.47;;;;;;;17.64;55.53;95729.47;5115310;28;20020;-28
2022/04/21 11:03:12;;;;;;;6.65;3.45;;;;;;;17.65;55.96;95730.97;5096617;28;20030;-30
2022/04/21 11:05:39;;;;;;;6.43;3.25;;;;;;;17.64;55.52;95711.03;5114920;28;20015;-28
2022/04/21 11:08:11;;;;;;;8.48;3.78;;;;;;;17.52;56.39;95707.44;5114958;28;20030;-28
2022/04/21 11:10:37;;;;;;;6.28;3.50;;;;;;;17.63;55.93;95706.00;5114901;28;20030;-28
2022/04/21 11:13:04;;;;;;;7.57;3.60;;;;;;;17.75;55.26;95691.13;5114744;28;20024;-29
2022/04/21 11:15:45;;;;;;;6.75;3.45;;;;;;;17.75;55.54;95689.16;5115044;28;20413;-29
2022/04/21 11:18:12;;;;;;;7.10;3.65;;;;;;;17.62;56.52;95680.56;5114472;28;20024;-28
2022/04/21 11:21:04;;;;;;;10.43;4.22;;;;;;;17.75;55.81;95671.94;5114631;28;20027;-29
2022/04/21 11:23:29;;;;;;;11.27;4.25;;;;;;;17.64;55.97;95658.19;5113535;28;20071;-28
2022/04/21 11:26:09;;;;;;;7.78;3.90;;;;;;;17.76;55.32;95641.28;5114569;28;20019;-29
2022/04/21 11:28:35;;;;;;;7.72;4.05;;;;;;;17.75;55.45;95623.34;5114510;28;20166;-31
2022/04/21 11:31:03;;;;;;;9.25;4.10;;;;;;;17.66;55.54;95617.31;5096120;28;20130;-29
2022/04/21 11:33:31;;;;;;;12.13;3.90;;;;;;;17.46;56.83;95609.94;5114761;28;20023;-28
2022/04/21 11:36:08;;;;;;;14.93;5.07;;;;;;;17.61;56.59;95591.34;5114260;28;20020;-28
2022/04/21 11:38:35;;;;;;;15.10;5.75;;;;;;;17.65;56.92;95585.66;5114205;28;20020;-28
2022/04/21 11:41:04;;;;;;;8.77;4.40;;;;;;;17.44;57.98;95579.53;5114161;28;20024;-29
2022/04/21 11:43:30;;;;;;;12.77;5.97;;;;;;;17.45;57.15;95581.78;5114326;28;20055;-28
2022/04/21 11:46:00;;;;;;;12.23;6.40;;;;;;;17.46;57.42;95580.56;5114067;28;20027;-28
2022/04/21 11:48:42;;;;;;;14.75;7.03;;;;;;;17.55;56.79;95579.59;5114223;28;20024;-29
2022/04/21 11:51:10;;;;;;;11.15;5.60;;;;;;;17.48;57.59;95580.81;5114033;28;20099;-28
2022/04/21 11:53:43;;;;;;;13.23;5.72;;;;;;;17.39;57.89;95585.75;5114076;28;20024;-28
2022/04/21 11:56:09;;;;;;;;;;;;;;;17.63;56.87;95585.38;5114452;28;20024;-30
2022/04/21 11:58:37;;;;;;;8.82;4.20;;;;;;;17.50;56.85;95572.09;5099347;28;19960;-28
2022/04/21 12:06:57;;;;;;;12.15;4.60;;;;;;;17.30;59.96;95573.03;5114316;28;20437;-28
2022/04/21 12:09:26;;;;;;;9.85;4.20;;;;;;;17.40;58.00;95571.56;5114114;28;20420;-30
2022/04/21 12:11:57;;;;;;;12.40;5.07;;;;;;;17.40;58.26;95568.81;5113960;28;20024;-28
2022/04/21 12:14:25;;;;;;;14.25;5.05;;;;;;;17.46;57.36;95569.59;5113671;28;20019;-28
2022/04/21 12:16:53;;;;;;;13.02;5.35;;;;;;;17.72;56.32;95563.22;5113779;28;20076;-28
2022/04/21 12:19:40;;;;;;;17.30;5.07;;;;;;;17.50;57.36;95555.66;5113741;28;20045;-28
2022/04/21 12:22:17;;;;;;;13.93;4.03;;;;;;;17.23;58.09;95563.25;5113695;28;20028;-29
2022/04/21 12:24:48;;;;;;;11.25;5.03;;;;;;;17.32;58.02;95548.59;5106156;28;20560;-28